Time;durP1;ratioP1;P1;durP2;ratioP2;P2;SDS_P1;SDS_P2;PMS_P1;PMS_P2;Temp;Humidity;BMP_temperature;BMP_pressure;BME280_temperature;BME280_humidity;BME280_pressure;Samples;Min_cycle;Max_cycle;Signal;HPM_P1;HPM_P2
2021/09/30 00:01:00;;;;;;;18.70;11.95;;;;;;;6.86;75.84;101136.31;1657155;85;21108;-69
2021/09/30 00:03:30;;;;;;;18.70;11.65;;;;;;;6.85;75.83;101133.26;1672617;85;21056;-70
2021/09/30 00:06:00;;;;;;;22.60;12.28;;;;;;;6.86;75.75;101130.83;1668375;85;21471;-70
2021/09/30 00:08:31;;;;;;;21.73;12.10;;;;;;;6.85;75.67;101134.09;1672421;85;21538;-69
2021/09/30 00:11:10;;;;;;;19.57;11.70;;;;;;;6.82;75.54;101133.24;1652466;85;21525;-69
2021/09/30 00:32:47;;;;;;;20.43;12.23;;;;;;;6.65;75.46;101126.45;1672520;85;21179;-70
2021/09/30 00:46:10;;;;;;;16.10;11.12;;;;;;;6.55;75.71;101121.11;1670791;85;21105;-72
2021/09/30 00:51:49;;;;;;;16.77;11.38;;;;;;;6.55;75.68;101121.11;1668821;84;21542;-70
2021/09/30 01:59:17;;;;;;;21.25;13.72;;;;;;;6.05;76.79;101131.09;1634091;86;21007;-69
2021/09/30 02:18:19;;;;;;;19.27;12.35;;;;;;;6.02;77.12;101128.27;1580303;86;21066;-70
2021/09/30 02:21:05;;;;;;;21.23;12.35;;;;;;;6.12;77.49;101120.81;1643850;86;21782;-69
2021/09/30 02:58:37;;;;;;;31.42;16.82;;;;;;;5.44;77.00;101123.77;1639996;86;21523;-70
2021/09/30 03:01:12;;;;;;;28.65;13.98;;;;;;;5.39;77.20;101125.05;1639181;86;21487;-70
2021/09/30 03:03:43;;;;;;;32.10;17.10;;;;;;;5.32;77.48;101121.09;1639271;86;21096;-69
2021/09/30 03:06:10;;;;;;;29.72;14.13;;;;;;;5.31;77.43;101125.45;1638776;86;21110;-69
2021/09/30 03:08:44;;;;;;;22.52;12.00;;;;;;;5.27;77.56;101116.90;1630919;86;21014;-69
2021/09/30 03:11:11;;;;;;;21.37;12.23;;;;;;;5.19;77.86;101124.13;1638916;86;21102;-69
2021/09/30 03:13:43;;;;;;;23.90;13.30;;;;;;;5.13;78.29;101131.95;1639927;86;21059;-69
2021/09/30 03:16:31;;;;;;;24.27;13.10;;;;;;;5.10;78.40;101127.26;1633141;86;21342;-69
2021/09/30 03:18:59;;;;;;;30.37;14.03;;;;;;;5.12;78.39;101131.11;1639555;86;21045;-68
2021/09/30 03:24:15;;;;;;;17.65;10.98;;;;;;;5.09;78.55;101129.71;1633411;86;21109;-69
2021/09/30 03:26:47;;;;;;;16.75;11.33;;;;;;;5.09;78.58;101126.14;1637164;86;21025;-69
2021/09/30 03:29:13;;;;;;;21.17;11.60;;;;;;;5.11;78.40;101129.46;1619520;86;21065;-70
2021/09/30 03:31:41;;;;;;;29.37;11.68;;;;;;;5.13;78.31;101119.13;1635053;86;21053;-69
2021/09/30 03:34:15;;;;;;;26.97;13.75;;;;;;;5.19;78.33;101129.59;1596990;86;21041;-69
2021/09/30 03:36:44;;;;;;;20.55;12.98;;;;;;;5.20;78.11;101114.87;1639362;86;21073;-70
2021/09/30 03:39:23;;;;;;;22.37;13.28;;;;;;;5.19;78.17;101119.50;1635587;86;21490;-68
2021/09/30 03:41:44;;;;;;;23.52;13.98;;;;;;;5.21;78.13;101121.99;1639083;86;21506;-68
2021/09/30 03:44:14;;;;;;;18.80;11.48;;;;;;;5.16;78.25;101112.33;1638957;86;21616;-68
2021/09/30 03:46:45;;;;;;;22.13;11.48;;;;;;;5.14;78.52;101121.30;1641476;86;21168;-69
2021/09/30 03:49:32;;;;;;;21.95;12.47;;;;;;;5.15;78.05;101117.52;1611118;86;21579;-68
2021/09/30 03:52:06;;;;;;;18.35;11.85;;;;;;;5.04;78.22;101118.68;1631182;86;21003;-70
2021/09/30 03:54:44;;;;;;;25.55;13.18;;;;;;;4.99;78.71;101118.58;1654177;84;21141;-70
2021/09/30 03:59:55;;;;;;;34.08;18.27;;;;;;;4.95;78.79;101126.95;1660149;84;21621;-70
2021/09/30 04:02:26;;;;;;;38.67;20.72;;;;;;;4.93;78.84;101129.13;1675216;84;21092;-69
2021/09/30 04:04:53;;;;;;;43.63;20.75;;;;;;;4.90;78.54;101129.05;1671017;84;21519;-69
2021/09/30 04:07:22;;;;;;;34.38;18.45;;;;;;;4.83;78.80;101120.16;1654738;84;21041;-70
2021/09/30 04:09:50;;;;;;;32.10;15.93;;;;;;;4.85;78.92;101128.95;1669035;84;21096;-69
2021/09/30 04:12:17;;;;;;;32.42;17.12;;;;;;;4.89;78.86;101124.67;1676502;84;21041;-70
2021/09/30 04:14:47;;;;;;;35.20;18.17;;;;;;;4.93;78.75;101129.93;1676620;84;21514;-70
2021/09/30 04:17:15;;;;;;;27.50;16.48;;;;;;;4.97;78.54;101133.85;1674283;84;21097;-70
2021/09/30 04:19:46;;;;;;;30.23;17.10;;;;;;;4.93;78.45;101133.22;1677768;84;21011;-70
2021/09/30 04:22:16;;;;;;;34.33;16.57;;;;;;;4.90;78.53;101126.84;1678616;84;21600;-69
2021/09/30 04:24:45;;;;;;;29.72;16.85;;;;;;;4.83;78.96;101129.72;1655076;84;21151;-69
2021/09/30 04:27:13;;;;;;;31.12;17.05;;;;;;;4.82;79.32;101129.44;1676360;84;21177;-69
2021/09/30 04:29:40;;;;;;;26.97;15.25;;;;;;;4.87;79.54;101132.28;1677247;84;21089;-70
2021/09/30 04:32:07;;;;;;;24.55;14.93;;;;;;;4.90;79.38;101134.52;1675833;84;21507;-69
2021/09/30 04:34:33;;;;;;;23.27;13.98;;;;;;;4.92;79.60;101135.11;1676260;84;21005;-69
2021/09/30 04:37:05;;;;;;;24.52;12.90;;;;;;;4.98;79.60;101134.12;1677265;84;21062;-69
2021/09/30 04:39:33;;;;;;;22.52;12.25;;;;;;;5.03;79.76;101139.42;1675759;84;21089;-70
2021/09/30 04:42:02;;;;;;;20.70;12.47;;;;;;;5.06;79.99;101136.20;1638702;86;21058;-68
2021/09/30 04:44:30;;;;;;;22.25;12.98;;;;;;;5.13;80.14;101147.82;1660908;84;21135;-71
2021/09/30 04:46:57;;;;;;;22.93;13.65;;;;;;;5.20;80.28;101133.45;1665290;84;21015;-69
2021/09/30 04:49:28;;;;;;;20.72;14.05;;;;;;;5.30;80.22;101141.03;1676724;84;21526;-70
2021/09/30 04:51:59;;;;;;;18.87;13.30;;;;;;;5.37;80.02;101142.25;1654111;84;21029;-69
2021/09/30 04:54:27;;;;;;;19.17;12.33;;;;;;;5.44;80.04;101138.81;1646626;86;21026;-69
2021/09/30 04:56:56;;;;;;;16.70;11.08;;;;;;;5.52;79.94;101143.06;1645984;85;21062;-69
2021/09/30 04:59:25;;;;;;;17.70;11.63;;;;;;;5.52;80.07;101147.69;1646413;86;21041;-68
2021/09/30 05:01:55;;;;;;;17.75;10.85;;;;;;;5.57;80.26;101141.79;1631755;86;21106;-69
2021/09/30 05:04:25;;;;;;;22.67;11.90;;;;;;;5.64;80.38;101145.73;1641903;86;21861;-69
2021/09/30 05:06:55;;;;;;;18.85;11.38;;;;;;;5.72;80.49;101146.69;1639929;86;21127;-70
2021/09/30 05:09:24;;;;;;;23.85;12.90;;;;;;;5.83;80.59;101153.14;1648686;85;21064;-69
2021/09/30 05:11:56;;;;;;;21.77;13.48;;;;;;;5.88;80.64;101155.69;1642038;86;21116;-70
2021/09/30 05:14:23;;;;;;;22.58;13.62;;;;;;;5.96;80.81;101147.91;1647612;86;20993;-70
2021/09/30 05:16:51;;;;;;;18.20;11.55;;;;;;;6.09;80.85;101156.34;1639309;86;21719;-69
2021/09/30 05:19:20;;;;;;;14.13;9.98;;;;;;;6.21;80.97;101153.50;1642324;86;21579;-69
2021/09/30 05:21:51;;;;;;;18.92;11.35;;;;;;;6.36;81.10;101155.36;1635379;85;21605;-69
2021/09/30 05:24:19;;;;;;;28.45;12.28;;;;;;;6.48;81.13;101161.58;1624721;86;21025;-69
2021/09/30 05:26:47;;;;;;;18.82;11.45;;;;;;;6.62;80.98;101157.09;1632714;86;21045;-69
2021/09/30 05:29:20;;;;;;;23.92;11.88;;;;;;;6.78;80.89;101160.85;1646021;86;22268;-69
2021/09/30 05:31:50;;;;;;;17.87;12.13;;;;;;;6.92;80.66;101161.31;1643441;85;21108;-70
2021/09/30 05:34:23;;;;;;;20.23;13.13;;;;;;;7.05;80.34;101168.30;1632407;87;21056;-70
2021/09/30 05:36:51;;;;;;;19.48;13.08;;;;;;;7.15;80.03;101166.22;1633542;86;21053;-69
2021/09/30 05:39:24;;;;;;;26.60;12.90;;;;;;;7.26;79.86;101169.38;1644759;86;21548;-70
2021/09/30 05:41:53;;;;;;;24.25;13.72;;;;;;;7.36;79.66;101166.45;1648215;86;21127;-70
2021/09/30 05:44:28;;;;;;;21.27;11.80;;;;;;;7.45;79.34;101173.14;1640356;86;21044;-71
2021/09/30 05:46:58;;;;;;;17.00;11.50;;;;;;;7.55;78.98;101166.92;1640062;86;21022;-70
2021/09/30 05:49:24;;;;;;;19.87;12.07;;;;;;;7.66;78.98;101171.42;1640926;86;21057;-69
2021/09/30 05:51:58;;;;;;;17.77;11.73;;;;;;;7.78;78.82;101176.73;1631962;85;21046;-70
2021/09/30 05:54:31;;;;;;;19.42;12.45;;;;;;;7.89;78.72;101171.34;1664394;86;21868;-71
2021/09/30 05:57:03;;;;;;;25.48;13.00;;;;;;;8.00;78.52;101177.76;1647260;86;21638;-70
2021/09/30 05:59:29;;;;;;;24.37;14.33;;;;;;;8.10;78.09;101179.19;1625047;87;21084;-69
2021/09/30 06:10:29;;;;;;;21.48;11.78;;;;;;;8.35;76.74;101185.14;1617712;88;21030;-70
2021/09/30 06:12:56;;;;;;;24.60;11.53;;;;;;;8.36;76.58;101182.70;1615581;88;21078;-71
2021/09/30 06:15:34;;;;;;;28.62;13.40;;;;;;;8.40;76.58;101188.76;1591123;88;21023;-71
2021/09/30 06:18:02;;;;;;;27.98;13.88;;;;;;;8.45;76.41;101189.87;1620481;87;21050;-70
2021/09/30 06:20:31;;;;;;;26.25;13.38;;;;;;;8.51;76.26;101186.89;1616061;88;21058;-69
2021/09/30 06:23:00;;;;;;;24.47;13.58;;;;;;;8.57;76.02;101186.41;1638463;87;21041;-69
2021/09/30 06:25:30;;;;;;;21.85;13.28;;;;;;;8.60;75.62;101184.50;1633915;87;21113;-70
2021/09/30 06:27:58;;;;;;;29.07;13.78;;;;;;;8.63;75.50;101187.28;1589028;88;21083;-70
2021/09/30 06:30:29;;;;;;;21.55;11.53;;;;;;;8.68;75.37;101192.81;1615751;87;21035;-69
2021/09/30 06:32:59;;;;;;;24.65;12.00;;;;;;;8.71;75.33;101188.15;1615368;88;21091;-70
2021/09/30 06:35:31;;;;;;;17.50;10.88;;;;;;;8.80;75.31;101188.47;1611491;88;21480;-71
2021/09/30 06:37:58;;;;;;;21.82;11.45;;;;;;;8.85;75.00;101187.09;1635032;87;21055;-71
2021/09/30 06:40:29;;;;;;;20.23;11.18;;;;;;;8.91;74.09;101193.99;1641063;87;21085;-70
2021/09/30 06:42:55;;;;;;;24.15;10.53;;;;;;;8.96;73.92;101194.02;1620650;88;21015;-69
2021/09/30 06:45:32;;;;;;;26.00;10.95;;;;;;;9.00;73.86;101199.27;1606526;87;21144;-70
2021/09/30 06:48:18;;;;;;;20.27;10.93;;;;;;;9.05;73.72;101201.21;1631527;87;21562;-70
2021/09/30 06:50:50;;;;;;;20.40;11.83;;;;;;;9.08;73.29;101198.75;1608483;89;21066;-70
2021/09/30 06:53:27;;;;;;;17.95;11.75;;;;;;;9.10;73.10;101198.48;1604988;86;21116;-69
2021/09/30 06:56:00;;;;;;;20.45;11.88;;;;;;;9.14;72.85;101209.23;1631536;86;21511;-70
2021/09/30 06:58:45;;;;;;;24.25;13.38;;;;;;;9.17;72.44;101202.36;1628190;87;21561;-72
2021/09/30 07:01:33;;;;;;;22.27;11.33;;;;;;;9.19;72.27;101196.88;1626428;87;21547;-70
2021/09/30 07:04:20;;;;;;;21.00;11.53;;;;;;;9.22;72.05;101201.00;1633560;86;21077;-70
2021/09/30 07:06:50;;;;;;;20.65;10.65;;;;;;;9.25;71.76;101200.45;1613896;87;21067;-70
2021/09/30 07:09:19;;;;;;;19.92;11.63;;;;;;;9.27;71.63;101209.27;1631440;86;21511;-71
2021/09/30 07:11:47;;;;;;;28.12;10.90;;;;;;;9.32;71.79;101205.70;1617187;87;21904;-70
2021/09/30 07:14:17;;;;;;;17.73;11.03;;;;;;;9.38;71.51;101202.70;1627253;87;21337;-71
2021/09/30 07:16:47;;;;;;;15.72;11.03;;;;;;;9.47;71.34;101209.05;1625615;87;21157;-70
2021/09/30 07:19:13;;;;;;;21.82;10.90;;;;;;;9.55;70.34;101209.08;1624422;86;21083;-70
2021/09/30 07:21:42;;;;;;;20.68;9.83;;;;;;;9.60;69.74;101200.84;1619760;86;21039;-70
2021/09/30 07:24:09;;;;;;;21.10;10.65;;;;;;;9.64;69.45;101201.92;1635903;87;21862;-69
2021/09/30 07:26:39;;;;;;;16.82;9.58;;;;;;;9.67;68.77;101205.50;1629684;87;21074;-69
2021/09/30 07:29:08;;;;;;;17.75;10.60;;;;;;;9.70;68.84;101209.11;1636263;86;21169;-70
2021/09/30 07:31:36;;;;;;;17.15;10.20;;;;;;;9.75;68.99;101208.28;1637826;86;21074;-70
2021/09/30 07:34:04;;;;;;;17.32;10.45;;;;;;;9.80;68.76;101211.59;1644847;85;21046;-71
2021/09/30 07:36:33;;;;;;;17.82;9.83;;;;;;;9.85;67.97;101217.10;1648277;85;20992;-70
2021/09/30 07:39:02;;;;;;;15.98;9.53;;;;;;;9.87;67.45;101213.53;1630370;86;21103;-72
2021/09/30 07:41:31;;;;;;;13.85;9.73;;;;;;;9.89;67.58;101214.09;1634051;86;21054;-71
2021/09/30 07:44:00;;;;;;;16.02;9.98;;;;;;;9.95;67.72;101210.23;1639031;86;21025;-69
2021/09/30 07:46:31;;;;;;;14.05;9.25;;;;;;;9.99;67.55;101211.89;1647222;85;21079;-70
2021/09/30 07:49:03;;;;;;;14.80;10.78;;;;;;;10.01;67.31;101211.61;1647236;86;21056;-69
2021/09/30 07:51:32;;;;;;;15.90;10.48;;;;;;;10.04;67.35;101207.77;1648196;85;21051;-70
2021/09/30 07:54:03;;;;;;;20.02;10.98;;;;;;;10.07;67.54;101210.50;1643150;85;21016;-70
2021/09/30 07:56:34;;;;;;;15.58;10.55;;;;;;;10.08;67.58;101208.84;1621744;87;21051;-70
2021/09/30 07:59:04;;;;;;;13.80;9.20;;;;;;;10.11;67.80;101211.62;1644031;86;21041;-70
2021/09/30 08:01:31;;;;;;;16.02;9.68;;;;;;;10.16;67.74;101208.86;1596441;87;21158;-69
2021/09/30 08:04:02;;;;;;;16.75;8.78;;;;;;;10.22;67.13;101209.66;1615613;87;21055;-71
2021/09/30 08:06:32;;;;;;;22.48;8.95;;;;;;;10.27;66.53;101206.11;1637051;87;21578;-71
2021/09/30 08:08:59;;;;;;;18.92;9.30;;;;;;;10.32;66.40;101212.42;1637928;87;21067;-69
2021/09/30 08:11:27;;;;;;;14.07;9.13;;;;;;;10.35;66.11;101214.61;1638509;87;21547;-70
2021/09/30 08:13:56;;;;;;;17.27;9.73;;;;;;;10.40;65.35;101211.59;1638479;87;21196;-71
2021/09/30 08:16:25;;;;;;;15.48;7.85;;;;;;;10.42;65.21;101210.20;1620962;87;21066;-70
2021/09/30 08:18:53;;;;;;;24.80;8.95;;;;;;;10.46;64.81;101211.84;1636959;87;21086;-70
2021/09/30 08:21:27;;;;;;;13.65;8.43;;;;;;;10.50;64.85;101212.16;1636681;87;21118;-70
2021/09/30 08:23:56;;;;;;;16.12;8.98;;;;;;;10.52;64.53;101212.70;1639668;86;21069;-71
2021/09/30 08:26:23;;;;;;;12.33;7.83;;;;;;;10.54;64.28;101217.39;1641432;86;21793;-72
2021/09/30 08:28:54;;;;;;;11.15;6.90;;;;;;;10.56;63.98;101217.38;1614450;86;21081;-70
2021/09/30 08:31:24;;;;;;;12.47;7.15;;;;;;;10.59;63.39;101204.41;1594602;89;21677;-71
2021/09/30 08:33:50;;;;;;;11.25;7.28;;;;;;;10.59;63.23;101209.92;1621382;86;21057;-70
2021/09/30 08:36:19;;;;;;;9.38;7.25;;;;;;;10.61;63.23;101208.84;1646542;85;21519;-70
2021/09/30 08:38:49;;;;;;;14.75;8.70;;;;;;;10.64;63.43;101208.27;1637935;87;21164;-71
2021/09/30 08:41:20;;;;;;;11.30;7.00;;;;;;;10.65;62.94;101210.75;1637505;86;21055;-71
2021/09/30 08:43:47;;;;;;;8.55;5.80;;;;;;;10.66;62.52;101211.02;1640614;86;21095;-70
2021/09/30 08:46:15;;;;;;;13.83;6.72;;;;;;;10.67;61.88;101213.23;1638451;87;21066;-71
2021/09/30 08:48:44;;;;;;;18.55;7.35;;;;;;;10.66;61.72;101211.58;1645624;86;21079;-69
2021/09/30 08:51:12;;;;;;;10.80;6.17;;;;;;;10.67;61.61;101213.23;1647319;86;21657;-71
2021/09/30 08:53:39;;;;;;;11.68;6.65;;;;;;;10.68;61.23;101206.63;1637296;86;21033;-70
2021/09/30 08:56:08;;;;;;;9.63;6.70;;;;;;;10.65;60.73;101206.61;1649050;86;21055;-70
2021/09/30 08:58:38;;;;;;;8.20;5.62;;;;;;;10.59;60.94;101204.98;1646089;86;21012;-70
2021/09/30 09:01:08;;;;;;;7.33;5.60;;;;;;;10.58;61.23;101205.53;1644055;86;20996;-70
2021/09/30 09:03:49;;;;;;;9.90;6.00;;;;;;;10.59;61.54;101203.61;1644015;86;21083;-70
2021/09/30 09:06:33;;;;;;;17.92;7.15;;;;;;;10.59;61.17;101203.03;1646057;85;21110;-72
2021/09/30 09:09:29;;;;;;;15.00;7.50;;;;;;;10.58;61.10;101200.02;1645341;85;21050;-69
2021/09/30 09:12:05;;;;;;;16.87;8.08;;;;;;;10.56;61.29;101199.46;1647384;86;21074;-70
2021/09/30 09:14:37;;;;;;;21.87;9.93;;;;;;;10.58;61.45;101197.80;1632595;86;21037;-70
2021/09/30 09:17:16;;;;;;;15.25;8.48;;;;;;;10.59;60.68;101198.90;1629775;86;21890;-70
2021/09/30 09:19:50;;;;;;;16.73;8.53;;;;;;;10.58;60.30;101196.42;1639614;86;21056;-70
2021/09/30 09:22:33;;;;;;;11.68;7.15;;;;;;;10.57;60.21;101199.75;1644460;86;21478;-70
2021/09/30 09:25:15;;;;;;;13.40;7.60;;;;;;;10.57;59.92;101197.54;1647621;86;21553;-71
2021/09/30 09:27:52;;;;;;;13.35;7.87;;;;;;;10.58;60.25;101199.18;1638458;86;21520;-71
2021/09/30 09:30:45;;;;;;;10.40;7.58;;;;;;;10.59;60.58;101190.63;1648440;86;21051;-69
2021/09/30 09:33:26;;;;;;;12.27;9.20;;;;;;;10.64;60.41;101192.57;1650317;85;21122;-70
2021/09/30 09:36:09;;;;;;;10.78;7.83;;;;;;;10.66;60.53;101190.91;1650167;86;21479;-71
2021/09/30 09:38:54;;;;;;;12.88;8.28;;;;;;;10.68;60.51;101189.51;1640457;86;21147;-70
2021/09/30 09:41:29;;;;;;;13.20;7.37;;;;;;;10.73;60.56;101190.61;1647174;86;21068;-70
2021/09/30 09:44:04;;;;;;;14.78;7.95;;;;;;;10.74;60.25;101190.88;1647793;86;21289;-71
2021/09/30 09:46:39;;;;;;;15.40;8.10;;;;;;;10.79;60.52;101190.86;1635555;86;21112;-71
2021/09/30 09:49:14;;;;;;;13.13;7.42;;;;;;;10.82;60.23;101193.89;1629672;86;21064;-71
2021/09/30 09:51:48;;;;;;;13.68;8.33;;;;;;;10.84;60.00;101201.88;1612837;86;21047;-69
2021/09/30 09:54:22;;;;;;;10.68;7.75;;;;;;;10.83;59.70;101202.99;1598820;89;21066;-70
2021/09/30 09:56:55;;;;;;;9.08;7.60;;;;;;;10.81;60.09;101196.92;1638956;86;21141;-69
2021/09/30 09:59:32;;;;;;;23.05;10.58;;;;;;;10.81;60.09;101196.92;1599120;86;21037;-69
2021/09/30 10:02:02;;;;;;;23.18;12.45;;;;;;;10.86;60.32;101199.67;1658839;84;20988;-69
2021/09/30 10:04:30;;;;;;;19.12;11.33;;;;;;;10.89;60.03;101204.62;1676592;84;21019;-70
2021/09/30 10:07:03;;;;;;;10.60;7.20;;;;;;;10.92;60.09;101200.45;1675516;84;21478;-70
2021/09/30 10:09:33;;;;;;;10.55;7.22;;;;;;;10.95;59.72;101199.92;1671931;84;20918;-73
2021/09/30 10:12:01;;;;;;;15.48;9.00;;;;;;;10.97;59.73;101201.02;1658228;84;21099;-69
2021/09/30 10:14:32;;;;;;;17.30;9.98;;;;;;;11.00;59.96;101204.03;1675227;84;20953;-70
2021/09/30 10:17:00;;;;;;;16.15;10.00;;;;;;;11.03;59.13;101198.50;1674939;84;20987;-70
2021/09/30 10:19:27;;;;;;;14.95;9.05;;;;;;;11.03;58.57;101205.39;1668693;84;21060;-71
2021/09/30 10:21:57;;;;;;;16.87;7.97;;;;;;;11.03;58.68;101208.98;1669297;84;21826;-70
2021/09/30 10:24:27;;;;;;;12.55;7.55;;;;;;;11.04;58.69;101197.38;1669742;84;21459;-70
2021/09/30 10:27:02;;;;;;;13.68;8.00;;;;;;;11.06;58.73;101201.52;1659472;84;21073;-70
2021/09/30 10:29:49;;;;;;;15.63;8.83;;;;;;;11.10;58.47;101196.27;1652703;84;21073;-70
2021/09/30 10:32:20;;;;;;;17.57;8.70;;;;;;;11.12;58.57;101188.54;1673191;84;21114;-69
2021/09/30 10:35:00;;;;;;;18.73;8.08;;;;;;;11.15;58.77;101190.73;1674863;84;21459;-70
2021/09/30 10:37:31;;;;;;;13.78;7.30;;;;;;;11.19;58.06;101183.52;1636631;87;21011;-69
2021/09/30 10:40:23;;;;;;;11.45;8.20;;;;;;;11.23;58.10;101185.70;1640763;87;21079;-70
2021/09/30 10:42:56;;;;;;;10.03;7.55;;;;;;;11.26;58.46;101189.30;1640651;87;21027;-70
2021/09/30 10:45:43;;;;;;;16.52;7.47;;;;;;;11.32;58.29;101186.77;1640821;87;21496;-70
2021/09/30 10:48:27;;;;;;;13.05;8.55;;;;;;;11.37;58.52;101185.37;1640877;87;21178;-71
2021/09/30 10:51:00;;;;;;;12.98;7.47;;;;;;;11.43;58.34;101188.36;1641935;86;21055;-70
2021/09/30 10:53:51;;;;;;;9.45;7.72;;;;;;;11.48;58.14;101186.11;1639624;87;21023;-71
2021/09/30 10:56:40;;;;;;;14.38;8.65;;;;;;;11.53;58.24;101190.80;1638275;87;21106;-71
2021/09/30 10:59:19;;;;;;;9.38;7.42;;;;;;;11.58;58.07;101194.08;1638782;87;21567;-69
2021/09/30 11:02:01;;;;;;;11.90;7.20;;;;;;;11.60;57.58;101181.63;1638658;87;21059;-70
2021/09/30 11:04:29;;;;;;;11.50;7.92;;;;;;;11.63;57.57;101180.23;1638212;87;21064;-70
2021/09/30 11:07:17;;;;;;;8.45;6.45;;;;;;;11.65;57.74;101178.83;1604354;87;21356;-70
2021/09/30 11:10:25;;;;;;;15.13;8.03;;;;;;;11.77;57.82;101178.47;1628895;87;21091;-70
2021/09/30 11:13:22;;;;;;;15.25;6.72;;;;;;;11.92;57.87;101169.23;1649198;87;21038;-69
2021/09/30 11:16:20;;;;;;;8.90;7.03;;;;;;;12.13;57.41;101173.81;1648486;86;22159;-67
2021/09/30 11:21:43;;;;;;;10.53;7.92;;;;;;;12.47;56.31;101163.23;1643147;87;21047;-74
2021/09/30 11:24:23;;;;;;;14.07;8.03;;;;;;;12.63;55.81;101160.30;1619888;87;21032;-71
2021/09/30 11:27:03;;;;;;;19.07;8.93;;;;;;;12.77;55.13;101164.02;1636715;87;21087;-69
2021/09/30 11:29:30;;;;;;;16.42;8.13;;;;;;;12.92;54.08;101165.48;1636893;87;21874;-69
2021/09/30 11:32:03;;;;;;;14.60;7.15;;;;;;;13.03;53.14;101162.29;1641375;86;21336;-70
2021/09/30 11:34:46;;;;;;;13.38;7.30;;;;;;;13.13;52.98;101162.73;1645536;86;21594;-71
2021/09/30 11:37:31;;;;;;;18.02;7.83;;;;;;;13.25;53.46;101161.47;1629026;86;21028;-69
2021/09/30 11:40:04;;;;;;;14.43;7.00;;;;;;;13.38;52.82;101151.58;1647276;86;21259;-69
2021/09/30 11:42:39;;;;;;;12.23;7.12;;;;;;;13.50;52.46;101148.36;1642935;86;21731;-70
2021/09/30 11:45:21;;;;;;;11.60;7.30;;;;;;;13.62;52.24;101144.61;1631448;88;21033;-69
2021/09/30 11:47:50;;;;;;;10.88;7.00;;;;;;;13.69;52.05;101141.46;1657510;86;21490;-68
2021/09/30 11:50:23;;;;;;;11.38;6.72;;;;;;;13.80;52.60;101142.68;1641896;86;21538;-70
2021/09/30 11:53:03;;;;;;;10.25;6.45;;;;;;;13.94;52.61;101139.93;1641743;85;21049;-71
2021/09/30 11:55:31;;;;;;;16.42;6.05;;;;;;;14.06;52.36;101129.20;1663344;85;21510;-71
2021/09/30 11:58:03;;;;;;;9.23;6.60;;;;;;;14.18;52.08;101136.19;1658180;85;21007;-70
2021/09/30 12:00:32;;;;;;;11.68;6.05;;;;;;;14.20;51.24;101132.55;1640256;86;21478;-69
2021/09/30 12:03:05;;;;;;;10.60;6.37;;;;;;;14.17;51.18;101134.55;1654728;86;21048;-69
2021/09/30 12:05:38;;;;;;;11.07;6.40;;;;;;;14.20;51.11;101125.06;1649995;86;21102;-70
2021/09/30 12:08:08;;;;;;;10.43;6.15;;;;;;;14.21;51.26;101117.59;1644842;87;21538;-70
2021/09/30 12:10:41;;;;;;;11.33;6.35;;;;;;;14.27;51.40;101118.29;1644882;87;21468;-70
2021/09/30 12:13:18;;;;;;;12.20;6.58;;;;;;;14.23;50.12;101119.47;1644770;87;21032;-70
2021/09/30 12:15:46;;;;;;;;;;;;;;;14.14;50.43;101122.70;1621663;86;21061;-72
2021/09/30 12:18:24;;;;;;;12.05;5.87;;;;;;;14.17;50.90;101113.77;1585856;89;20453;-68
2021/09/30 12:20:56;;;;;;;15.90;7.72;;;;;;;14.22;51.03;101110.91;1623244;86;21675;-72
2021/09/30 12:23:25;;;;;;;11.33;6.25;;;;;;;14.27;51.08;101109.97;1651973;86;21164;-70
2021/09/30 12:25:59;;;;;;;14.65;6.40;;;;;;;14.32;50.48;101106.55;1645497;87;21038;-71
2021/09/30 12:28:27;;;;;;;8.48;6.17;;;;;;;14.37;49.98;101102.84;1643287;87;21126;-70
2021/09/30 12:30:56;;;;;;;6.22;5.15;;;;;;;14.42;50.22;101108.84;1634171;86;21086;-70
2021/09/30 12:33:35;;;;;;;10.20;5.65;;;;;;;14.47;50.65;101105.98;1659571;85;21058;-71
2021/09/30 12:36:06;;;;;;;8.80;6.03;;;;;;;14.55;50.35;101098.32;1656178;86;21022;-72
2021/09/30 12:38:39;;;;;;;7.75;5.95;;;;;;;14.58;49.93;101094.95;1609472;88;21053;-70
2021/09/30 12:41:08;;;;;;;13.13;5.55;;;;;;;14.53;48.88;101099.22;1609346;89;21067;-69
2021/09/30 12:43:47;;;;;;;10.18;5.70;;;;;;;14.45;49.76;101095.20;1655335;86;21029;-70
2021/09/30 12:46:19;;;;;;;6.97;5.12;;;;;;;14.44;49.51;101089.41;1655723;86;21528;-71
2021/09/30 12:48:51;;;;;;;11.88;6.33;;;;;;;14.46;49.80;101084.94;1661314;86;21061;-72
2021/09/30 12:51:22;;;;;;;9.35;4.80;;;;;;;14.48;49.70;101082.09;1657570;86;21126;-70
2021/09/30 12:53:54;;;;;;;11.08;5.42;;;;;;;14.55;49.93;101082.27;1649313;86;21091;-70
2021/09/30 12:56:31;;;;;;;10.10;5.40;;;;;;;14.59;49.28;101085.48;1626356;87;21605;-69
2021/09/30 12:59:14;;;;;;;11.45;5.87;;;;;;;14.62;49.23;101081.84;1643010;87;21058;-71
2021/09/30 13:01:45;;;;;;;8.25;5.65;;;;;;;14.64;49.38;101076.23;1631963;86;21065;-72
2021/09/30 13:04:23;;;;;;;10.98;5.97;;;;;;;14.65;49.38;101072.91;1653854;86;21061;-70
2021/09/30 13:07:06;;;;;;;9.35;5.35;;;;;;;14.65;49.23;101075.13;1636125;86;21046;-67
2021/09/30 13:09:38;;;;;;;9.88;5.85;;;;;;;14.65;49.16;101075.13;1615255;88;21142;-71
2021/09/30 13:12:19;;;;;;;14.50;5.95;;;;;;;14.64;48.75;101074.05;1561808;89;21111;-71
2021/09/30 13:14:54;;;;;;;7.67;6.05;;;;;;;14.60;47.99;101064.94;1646233;86;21061;-69
2021/09/30 13:17:25;;;;;;;9.13;5.78;;;;;;;14.58;48.37;101063.06;1644119;86;21131;-71
2021/09/30 13:20:07;;;;;;;7.30;5.25;;;;;;;14.57;48.56;101057.23;1647749;85;21057;-69
2021/09/30 13:22:38;;;;;;;10.82;5.97;;;;;;;14.58;48.96;101055.30;1639242;86;21083;-70
2021/09/30 13:25:16;;;;;;;8.78;5.60;;;;;;;14.58;49.10;101058.90;1631260;87;21052;-70
2021/09/30 13:27:51;;;;;;;9.90;6.25;;;;;;;14.59;48.79;101054.98;1646075;85;21058;-69
2021/09/30 13:30:33;;;;;;;11.53;6.10;;;;;;;14.58;48.38;101049.19;1635276;86;21062;-69
2021/09/30 13:33:02;;;;;;;6.85;5.47;;;;;;;14.56;48.13;101052.83;1652427;85;21521;-70
2021/09/30 13:35:35;;;;;;;18.27;6.17;;;;;;;14.52;48.47;101049.61;1653592;86;21543;-70
2021/09/30 13:38:08;;;;;;;14.20;6.62;;;;;;;14.50;48.15;101042.16;1638159;86;21106;-71
2021/09/30 13:40:37;;;;;;;11.08;6.17;;;;;;;14.48;48.43;101041.89;1638116;86;21047;-70
2021/09/30 13:43:05;;;;;;;11.90;5.78;;;;;;;14.47;48.90;101035.27;1638767;86;21070;-70
2021/09/30 13:45:37;;;;;;;6.87;5.42;;;;;;;14.48;49.05;101038.31;1645472;86;21047;-71
2021/09/30 13:48:04;;;;;;;9.20;5.35;;;;;;;14.49;49.25;101037.17;1638711;86;21031;-70
2021/09/30 13:50:35;;;;;;;26.25;7.90;;;;;;;14.49;49.23;101031.62;1638577;86;21059;-70
2021/09/30 13:53:08;;;;;;;11.05;6.28;;;;;;;14.48;48.70;101029.99;1641548;86;21058;-72
2021/09/30 13:55:41;;;;;;;7.12;5.03;;;;;;;14.45;48.76;101030.62;1653969;85;21070;-73
2021/09/30 13:58:09;;;;;;;14.30;6.50;;;;;;;14.38;48.04;101028.23;1653302;85;21165;-71
2021/09/30 14:00:40;;;;;;;8.85;6.42;;;;;;;14.29;48.49;101026.77;1670066;85;21325;-71
2021/09/30 14:03:08;;;;;;;7.83;6.28;;;;;;;14.24;48.64;101026.87;1656079;85;21506;-71
2021/09/30 14:05:37;;;;;;;15.25;6.25;;;;;;;14.19;48.50;101028.36;1656266;85;21047;-71
2021/09/30 14:08:12;;;;;;;8.13;5.50;;;;;;;14.12;48.57;101021.27;1658952;85;21147;-69
2021/09/30 14:10:43;;;;;;;10.50;6.28;;;;;;;14.09;49.09;101021.88;1667448;85;21085;-71
2021/09/30 14:13:09;;;;;;;9.05;6.20;;;;;;;14.06;48.61;101017.52;1649505;85;21100;-69
2021/09/30 14:15:40;;;;;;;13.18;6.42;;;;;;;14.06;48.98;101015.57;1670357;85;21151;-70
2021/09/30 14:18:13;;;;;;;10.00;5.22;;;;;;;14.10;49.24;101015.23;1670078;84;21042;-68
2021/09/30 14:20:43;;;;;;;9.68;5.87;;;;;;;14.09;49.21;101012.77;1656819;85;21058;-70
2021/09/30 14:23:12;;;;;;;8.25;6.08;;;;;;;14.03;49.09;101012.03;1654781;86;37754;-72
2021/09/30 14:25:40;;;;;;;8.88;6.00;;;;;;;13.97;49.48;101010.50;1636057;86;21053;-73
2021/09/30 14:28:09;;;;;;;9.03;6.20;;;;;;;13.93;49.19;101008.08;1649874;85;21690;-72
2021/09/30 14:30:40;;;;;;;8.10;6.12;;;;;;;13.84;49.16;101008.79;1670419;85;21039;-69